Terminal Aerodrome Forecast
Issued by NWS Upton, NY

Home | Current Version | Previous Version | Text Only | Print | Product List | Glossary On
Versions: 1 2 3 4 5 6 7 8 9 10 11 12 13 14 15 16 17 18 19 20 21 22 23 24 25 26 27 28
000
FTUS41 KOKX 200800 AAA
TAFEWR
TAF AMD
KEWR 200838Z 2009/2112 05011KT P6SM BKN250
     FM201300 08011KT P6SM SCT250
     FM201900 12009KT P6SM SKC
     FM210200 09006KT P6SM SKC
     FM210500 VRB03KT P6SM FEW250=

USA.gov is the U.S. government's official web portal to all federal, state and local government web resources and services.